Time;durP1;ratioP1;P1;durP2;ratioP2;P2;SDS_P1;SDS_P2;PMS_P1;PMS_P2;Temp;Humidity;BMP_temperature;BMP_pressure;BME280_temperature;BME280_humidity;BME280_pressure;Samples;Min_cycle;Max_cycle;Signal;HPM_P1;HPM_P2
2022/11/12 00:01:00;;;;;;;;;2.67;2.67;;;;;;;;4766399;30;8892;-92
2022/11/12 00:03:25;;;;;;;;;0.00;0.00;;;;;;;;4753168;30;8954;-92
2022/11/12 00:05:52;;;;;;;;;0.00;0.00;;;;;;;;4753221;30;8844;-92
2022/11/12 00:08:17;;;;;;;;;0.00;0.00;;;;;;;;4753666;30;8925;-92
2022/11/12 00:10:43;;;;;;;;;0.00;0.00;;;;;;;;4753274;30;11675;-92
2022/11/12 00:13:08;;;;;;;;;0.00;0.00;;;;;;;;4753365;30;8879;-92
2022/11/12 00:15:33;;;;;;;;;0.00;0.00;;;;;;;;4752721;30;8884;-92
2022/11/12 00:17:58;;;;;;;;;0.00;0.00;;;;;;;;4753335;30;8859;-92
2022/11/12 00:20:24;;;;;;;;;0.00;0.00;;;;;;;;4752964;30;8844;-92
2022/11/12 00:22:49;;;;;;;;;0.00;0.00;;;;;;;;4786796;29;8916;-92
2022/11/12 00:25:14;;;;;;;;;4.67;4.67;;;;;;;;4787025;29;8871;-92
2022/11/12 00:27:39;;;;;;;;;0.33;0.33;;;;;;;;4765954;30;8884;-92
2022/11/12 00:30:05;;;;;;;;;0.00;0.00;;;;;;;;4768651;29;8876;-91
2022/11/12 00:32:30;;;;;;;;;0.00;0.00;;;;;;;;4752984;30;8853;-91
2022/11/12 00:35:03;;;;;;;;;0.00;0.00;;;;;;;;4752674;30;8886;-91
2022/11/12 00:37:28;;;;;;;;;0.00;0.00;;;;;;;;4752552;30;8930;-91
2022/11/12 00:39:53;;;;;;;;;3.00;3.00;;;;;;;;4753104;30;8841;-93
2022/11/12 00:42:18;;;;;;;;;0.00;0.00;;;;;;;;4766695;30;28576;-93
2022/11/12 00:44:43;;;;;;;;;0.00;0.00;;;;;;;;4743622;29;28459;-92
2022/11/12 00:47:09;;;;;;;;;0.00;0.00;;;;;;;;4738925;30;28602;-92
2022/11/12 00:49:34;;;;;;;;;0.00;0.00;;;;;;;;4735391;30;30111;-92
2022/11/12 00:51:59;;;;;;;;;0.00;0.00;;;;;;;;4733942;30;28398;-93
2022/11/12 00:54:33;;;;;;;;;0.00;0.00;;;;;;;;4731227;30;28370;-92
2022/11/12 00:56:59;;;;;;;;;0.00;0.00;;;;;;;;4736731;30;28420;-92
2022/11/12 00:59:24;;;;;;;;;4.67;4.67;;;;;;;;4732871;30;28319;-91
2022/11/12 01:01:49;;;;;;;;;0.00;0.00;;;;;;;;4730690;30;28906;-92
2022/11/12 01:04:15;;;;;;;;;0.00;0.00;;;;;;;;4732530;30;28442;-91
2022/11/12 01:06:40;;;;;;;;;0.00;0.00;;;;;;;;4717941;30;28689;-92
2022/11/12 01:09:06;;;;;;;;;0.67;0.67;;;;;;;;4732755;30;29827;-92
2022/11/12 01:11:31;;;;;;;;;0.00;0.00;;;;;;;;4732489;30;28812;-92
2022/11/12 01:13:56;;;;;;;;;0.00;0.00;;;;;;;;4733311;30;28569;-92
2022/11/12 01:16:23;;;;;;;;;0.00;0.00;;;;;;;;4731331;30;28684;-92
2022/11/12 01:18:51;;;;;;;;;0.00;0.00;;;;;;;;4730638;30;29969;-92
2022/11/12 01:21:16;;;;;;;;;0.00;0.00;;;;;;;;4730890;30;29618;-92
2022/11/12 01:23:42;;;;;;;;;0.00;0.00;;;;;;;;4731034;30;28397;-93
2022/11/12 01:26:12;;;;;;;;;0.00;0.00;;;;;;;;4731151;30;28508;-92
2022/11/12 01:28:37;;;;;;;;;0.00;0.00;;;;;;;;4730930;30;30880;-92
2022/11/12 01:31:12;;;;;;;;;0.00;0.00;;;;;;;;4736404;30;28513;-92
2022/11/12 01:33:37;;;;;;;;;0.00;0.00;;;;;;;;4748753;30;28540;-92
2022/11/12 01:36:03;;;;;;;;;13.00;13.00;;;;;;;;4747942;30;28658;-92
2022/11/12 01:38:28;;;;;;;;;1.00;1.00;;;;;;;;4733823;30;30106;-92
2022/11/12 01:40:53;;;;;;;;;0.00;0.00;;;;;;;;4748128;30;29491;-92
2022/11/12 01:43:18;;;;;;;;;0.00;0.00;;;;;;;;4748698;30;28470;-92
2022/11/12 01:45:45;;;;;;;;;0.00;0.00;;;;;;;;4730729;30;28526;-92
2022/11/12 01:48:22;;;;;;;;;0.00;0.00;;;;;;;;4730441;30;30220;-93
2022/11/12 01:50:47;;;;;;;;;0.00;0.00;;;;;;;;4730093;30;28638;-92
2022/11/12 01:53:13;;;;;;;;;0.33;0.33;;;;;;;;4730495;30;28416;-93
2022/11/12 01:55:39;;;;;;;;;0.00;0.00;;;;;;;;4729687;30;28655;-92
2022/11/12 01:58:09;;;;;;;;;0.00;0.00;;;;;;;;4730136;30;30243;-92
2022/11/12 02:00:34;;;;;;;;;0.00;0.00;;;;;;;;4730104;30;28622;-92
2022/11/12 02:03:01;;;;;;;;;0.00;0.00;;;;;;;;4730631;30;28439;-92
2022/11/12 02:05:28;;;;;;;;;2.33;2.33;;;;;;;;4759673;29;27980;-93
2022/11/12 02:07:54;;;;;;;;;0.00;0.00;;;;;;;;4730562;30;30223;-93
2022/11/12 02:10:20;;;;;;;;;0.00;0.00;;;;;;;;4730466;30;29062;-93
2022/11/12 02:15:30;;;;;;;;;1.00;1.00;;;;;;;;4731397;30;28263;-93
2022/11/12 02:17:55;;;;;;;;;0.67;0.67;;;;;;;;4736418;30;30258;-92
2022/11/12 02:20:20;;;;;;;;;0.00;0.00;;;;;;;;4734129;30;28541;-91
2022/11/12 02:22:46;;;;;;;;;0.00;0.00;;;;;;;;4748612;30;28405;-93
2022/11/12 02:25:12;;;;;;;;;1.33;1.33;;;;;;;;4747668;30;27912;-92
2022/11/12 02:27:38;;;;;;;;;0.00;0.00;;;;;;;;4747362;30;29883;-92
2022/11/12 02:30:03;;;;;;;;;0.00;0.00;;;;;;;;4747960;30;28603;-92
2022/11/12 02:32:29;;;;;;;;;0.00;0.00;;;;;;;;4751034;30;28367;-93
2022/11/12 02:34:54;;;;;;;;;0.00;0.00;;;;;;;;4741843;30;28434;-91
2022/11/12 02:37:19;;;;;;;;;3.00;3.00;;;;;;;;4750802;30;29817;-92
2022/11/12 02:39:44;;;;;;;;;0.00;0.00;;;;;;;;4751001;30;28916;-91
2022/11/12 02:42:09;;;;;;;;;0.33;0.33;;;;;;;;4753563;30;28439;-92
2022/11/12 02:44:35;;;;;;;;;0.00;0.00;;;;;;;;4751163;30;28379;-92
2022/11/12 02:47:00;;;;;;;;;0.00;0.00;;;;;;;;4746347;30;28454;-93
2022/11/12 02:49:25;;;;;;;;;0.00;0.00;;;;;;;;4746923;30;30268;-91
2022/11/12 02:51:50;;;;;;;;;27.33;27.33;;;;;;;;4750138;30;28525;-92
2022/11/12 02:54:15;;;;;;;;;0.00;0.00;;;;;;;;4743492;29;28321;-92
2022/11/12 02:56:41;;;;;;;;;0.67;0.67;;;;;;;;4745572;30;30076;-92
2022/11/12 02:59:06;;;;;;;;;0.00;0.00;;;;;;;;4735910;30;29119;-92
2022/11/12 03:01:31;;;;;;;;;3.33;3.33;;;;;;;;4735204;30;28381;-92
2022/11/12 03:03:56;;;;;;;;;0.00;0.00;;;;;;;;4736148;30;28375;-92
2022/11/12 03:06:22;;;;;;;;;0.00;0.00;;;;;;;;4735163;30;29808;-92
2022/11/12 03:08:47;;;;;;;;;0.00;0.00;;;;;;;;4735790;30;28630;-92
2022/11/12 03:11:13;;;;;;;;;0.00;0.00;;;;;;;;4735331;30;28543;-93
2022/11/12 03:13:39;;;;;;;;;0.00;0.00;;;;;;;;4735660;30;28980;-92
2022/11/12 03:16:05;;;;;;;;;0.00;0.00;;;;;;;;4744303;29;31339;-91
2022/11/12 03:18:30;;;;;;;;;0.67;0.67;;;;;;;;4753379;29;28827;-91
2022/11/12 03:20:55;;;;;;;;;0.00;0.00;;;;;;;;4743292;30;28612;-92
2022/11/12 03:23:20;;;;;;;;;0.00;0.00;;;;;;;;4735853;30;28460;-92
2022/11/12 03:25:46;;;;;;;;;1.00;1.00;;;;;;;;4735151;30;30173;-92
2022/11/12 03:28:12;;;;;;;;;0.00;0.00;;;;;;;;4736551;30;28532;-92
2022/11/12 03:30:38;;;;;;;;;0.00;0.00;;;;;;;;4736915;30;28084;-91
2022/11/12 03:33:04;;;;;;;;;0.00;0.00;;;;;;;;4736673;30;28912;-92
2022/11/12 03:35:30;;;;;;;;;1.33;1.33;;;;;;;;4742797;29;30066;-92
2022/11/12 03:37:55;;;;;;;;;0.00;0.00;;;;;;;;4753081;29;29045;-92
2022/11/12 03:40:21;;;;;;;;;0.00;0.00;;;;;;;;4752333;29;28370;-92
2022/11/12 03:42:47;;;;;;;;;0.00;0.00;;;;;;;;4752413;29;28557;-92
2022/11/12 03:45:12;;;;;;;;;0.00;0.00;;;;;;;;4750618;29;31037;-92
2022/11/12 03:47:47;;;;;;;;;0.00;0.00;;;;;;;;4735483;30;28537;-92
2022/11/12 03:50:14;;;;;;;;;0.00;0.00;;;;;;;;4739286;29;27943;-93
2022/11/12 03:52:42;;;;;;;;;0.00;0.00;;;;;;;;4753325;29;28608;-92
2022/11/12 03:55:08;;;;;;;;;0.00;0.00;;;;;;;;4752429;29;31157;-90
2022/11/12 03:57:33;;;;;;;;;0.00;0.00;;;;;;;;4752462;29;29752;-92
2022/11/12 03:59:58;;;;;;;;;0.00;0.00;;;;;;;;4752683;29;28607;-93
2022/11/12 04:02:25;;;;;;;;;0.00;0.00;;;;;;;;4769024;29;28610;-92
2022/11/12 04:10:18;;;;;;;;;4.00;4.00;;;;;;;;4750118;30;28524;-92
2022/11/12 04:15:27;;;;;;;;;0.00;0.00;;;;;;;;4749889;30;28473;-91
2022/11/12 04:23:23;;;;;;;;;0.00;0.00;;;;;;;;4751757;30;28552;-92
2022/11/12 04:28:33;;;;;;;;;28.00;28.00;;;;;;;;4764048;29;28511;-92
2022/11/12 04:30:58;;;;;;;;;0.00;0.00;;;;;;;;4753435;29;28508;-92
2022/11/12 04:33:23;;;;;;;;;0.00;0.00;;;;;;;;4754065;29;27947;-92
2022/11/12 04:35:48;;;;;;;;;0.00;0.00;;;;;;;;4752520;29;29953;-93
2022/11/12 04:38:13;;;;;;;;;0.00;0.00;;;;;;;;4753287;29;28510;-91
2022/11/12 04:46:07;;;;;;;;;0.00;0.00;;;;;;;;4769505;29;28516;-93
2022/11/12 04:48:32;;;;;;;;;0.00;0.00;;;;;;;;4753791;29;28725;-92
2022/11/12 04:50:59;;;;;;;;;0.00;0.00;;;;;;;;4752971;29;28585;-93
2022/11/12 04:53:25;;;;;;;;;0.00;0.00;;;;;;;;4752450;29;28676;-92
2022/11/12 04:55:51;;;;;;;;;0.00;0.00;;;;;;;;4744008;30;29807;-92
2022/11/12 04:58:16;;;;;;;;;0.00;0.00;;;;;;;;4734701;30;29609;-93
2022/11/12 05:00:41;;;;;;;;;0.00;0.00;;;;;;;;4751255;30;28467;-93
2022/11/12 05:03:07;;;;;;;;;0.00;0.00;;;;;;;;4734237;30;28498;-93
2022/11/12 05:05:32;;;;;;;;;0.00;0.00;;;;;;;;4735292;29;29635;-92
2022/11/12 05:08:01;;;;;;;;;0.00;0.00;;;;;;;;4753113;29;28679;-93
2022/11/12 05:10:26;;;;;;;;;0.00;0.00;;;;;;;;4768373;29;28568;-92
2022/11/12 05:12:51;;;;;;;;;0.00;0.00;;;;;;;;4752707;29;27904;-91
2022/11/12 05:15:17;;;;;;;;;12.00;12.00;;;;;;;;4751246;29;30676;-92
2022/11/12 05:17:42;;;;;;;;;0.00;0.00;;;;;;;;4751553;29;29052;-93
2022/11/12 05:20:08;;;;;;;;;0.00;0.00;;;;;;;;4750812;29;28431;-92
2022/11/12 05:22:33;;;;;;;;;0.00;0.00;;;;;;;;4750701;29;28534;-91
2022/11/12 05:24:59;;;;;;;;;0.00;0.00;;;;;;;;4733297;30;30664;-92
2022/11/12 05:27:24;;;;;;;;;0.00;0.00;;;;;;;;4739882;30;29592;-92
2022/11/12 05:29:49;;;;;;;;;0.00;0.00;;;;;;;;4734101;30;28438;-93
2022/11/12 05:32:15;;;;;;;;;0.00;0.00;;;;;;;;4748958;30;28804;-92
2022/11/12 05:34:40;;;;;;;;;0.00;0.00;;;;;;;;4733608;30;31079;-92
2022/11/12 05:37:06;;;;;;;;;0.00;0.00;;;;;;;;4748602;30;28445;-93
2022/11/12 05:39:31;;;;;;;;;0.00;0.00;;;;;;;;4733955;30;28442;-91
2022/11/12 05:41:57;;;;;;;;;0.00;0.00;;;;;;;;4733814;30;28605;-92
2022/11/12 05:44:22;;;;;;;;;0.00;0.00;;;;;;;;4734163;30;30195;-92
2022/11/12 05:46:49;;;;;;;;;0.00;0.00;;;;;;;;4746014;29;29441;-92
2022/11/12 05:49:14;;;;;;;;;0.00;0.00;;;;;;;;4751831;29;28369;-91
2022/11/12 05:51:39;;;;;;;;;0.00;0.00;;;;;;;;4767851;29;28472;-92
2022/11/12 05:54:04;;;;;;;;;0.00;0.00;;;;;;;;4768630;29;28340;-91
2022/11/12 05:56:30;;;;;;;;;0.00;0.00;;;;;;;;4750868;29;28880;-91
2022/11/12 05:58:55;;;;;;;;;0.00;0.00;;;;;;;;4751044;29;28375;-92
2022/11/12 06:01:20;;;;;;;;;0.00;0.00;;;;;;;;4745706;30;28709;-92
2022/11/12 06:03:46;;;;;;;;;0.00;0.00;;;;;;;;4733261;30;30315;-91
2022/11/12 06:06:11;;;;;;;;;0.00;0.00;;;;;;;;4733072;30;28757;-92
2022/11/12 06:08:36;;;;;;;;;0.00;0.00;;;;;;;;4749424;30;28457;-92
2022/11/12 06:11:01;;;;;;;;;0.00;0.00;;;;;;;;4733161;30;28529;-92
2022/11/12 06:13:26;;;;;;;;;0.00;0.00;;;;;;;;4733188;30;29683;-93
2022/11/12 06:15:52;;;;;;;;;0.00;0.00;;;;;;;;4749724;29;28462;-92
2022/11/12 06:18:18;;;;;;;;;0.00;0.00;;;;;;;;4733209;30;28843;-92
2022/11/12 06:20:43;;;;;;;;;0.00;0.00;;;;;;;;4732860;30;28497;-92
2022/11/12 06:23:08;;;;;;;;;0.00;0.00;;;;;;;;4733235;30;29828;-92
2022/11/12 06:25:34;;;;;;;;;2.00;2.00;;;;;;;;4733082;30;28699;-93
2022/11/12 06:27:59;;;;;;;;;0.00;0.00;;;;;;;;4740884;29;28591;-93
2022/11/12 06:30:24;;;;;;;;;0.00;0.00;;;;;;;;4750732;29;28622;-92
2022/11/12 06:32:50;;;;;;;;;0.00;0.00;;;;;;;;4750719;29;29755;-92
2022/11/12 06:35:15;;;;;;;;;0.00;0.00;;;;;;;;4750718;29;29149;-93
2022/11/12 06:37:40;;;;;;;;;0.00;0.00;;;;;;;;4766852;29;28524;-93
2022/11/12 06:40:06;;;;;;;;;0.00;0.00;;;;;;;;4750749;29;28804;-93
2022/11/12 06:42:31;;;;;;;;;0.00;0.00;;;;;;;;4736384;30;29826;-93
2022/11/12 06:44:56;;;;;;;;;0.00;0.00;;;;;;;;4732050;30;28626;-91
2022/11/12 06:47:22;;;;;;;;;0.00;0.00;;;;;;;;4733188;30;28239;-92
2022/11/12 06:49:47;;;;;;;;;0.00;0.00;;;;;;;;4732634;30;28431;-92
2022/11/12 06:52:13;;;;;;;;;0.00;0.00;;;;;;;;4733016;30;30888;-92
2022/11/12 06:54:39;;;;;;;;;0.00;0.00;;;;;;;;4733229;30;28818;-92
2022/11/12 06:57:04;;;;;;;;;0.00;0.00;;;;;;;;4732656;30;28870;-92
2022/11/12 06:59:29;;;;;;;;;0.00;0.00;;;;;;;;4733092;30;28455;-92
2022/11/12 07:01:54;;;;;;;;;0.00;0.00;;;;;;;;4732394;30;30252;-91
2022/11/12 07:04:19;;;;;;;;;0.00;0.00;;;;;;;;4732851;30;28571;-91
2022/11/12 07:06:45;;;;;;;;;0.00;0.00;;;;;;;;4732469;30;28524;-91
2022/11/12 07:09:10;;;;;;;;;0.00;0.00;;;;;;;;4739283;29;28390;-92
2022/11/12 07:11:36;;;;;;;;;0.33;0.33;;;;;;;;4731772;29;29757;-92
2022/11/12 07:14:03;;;;;;;;;0.00;0.00;;;;;;;;4749271;29;28595;-92
2022/11/12 07:16:29;;;;;;;;;0.00;0.00;;;;;;;;4750644;29;28734;-92
2022/11/12 07:18:54;;;;;;;;;4.00;4.00;;;;;;;;4769226;29;28516;-92
2022/11/12 07:21:19;;;;;;;;;0.00;0.00;;;;;;;;4752746;29;29711;-91
2022/11/12 07:23:45;;;;;;;;;0.00;0.00;;;;;;;;4752957;29;29483;-92
2022/11/12 07:26:16;;;;;;;;;0.00;0.00;;;;;;;;4752377;29;28520;-89
2022/11/12 07:28:41;;;;;;;;;0.00;0.00;;;;;;;;4755614;29;28543;-91
2022/11/12 07:31:08;;;;;;;;;0.00;0.00;;;;;;;;4749250;29;28494;-89
2022/11/12 07:33:33;;;;;;;;;0.00;0.00;;;;;;;;4752730;29;28466;-90
2022/11/12 07:36:00;;;;;;;;;0.00;0.00;;;;;;;;4756197;29;28606;-90
2022/11/12 07:38:25;;;;;;;;;0.00;0.00;;;;;;;;4760468;29;28462;-91
2022/11/12 07:40:51;;;;;;;;;0.00;0.00;;;;;;;;4751796;29;28411;-90
2022/11/12 07:43:16;;;;;;;;;0.00;0.00;;;;;;;;4742169;29;28554;-90
2022/11/12 07:45:41;;;;;;;;;0.00;0.00;;;;;;;;4745947;30;28535;-89
2022/11/12 07:48:06;;;;;;;;;0.00;0.00;;;;;;;;4734258;30;28487;-87
2022/11/12 07:50:31;;;;;;;;;0.00;0.00;;;;;;;;4748791;29;30067;-89
2022/11/12 07:52:57;;;;;;;;;0.00;0.00;;;;;;;;4750839;29;29413;-88
2022/11/12 07:55:23;;;;;;;;;0.00;0.00;;;;;;;;4735508;30;27815;-90
2022/11/12 07:57:48;;;;;;;;;0.00;0.00;;;;;;;;4733885;30;28876;-89
2022/11/12 08:00:14;;;;;;;;;0.00;0.00;;;;;;;;4733916;30;30414;-90
2022/11/12 08:02:39;;;;;;;;;0.00;0.00;;;;;;;;4739462;29;29097;-89
2022/11/12 08:05:04;;;;;;;;;0.00;0.00;;;;;;;;4762987;29;29052;-89
2022/11/12 08:07:29;;;;;;;;;0.00;0.00;;;;;;;;4765238;29;28410;-88
2022/11/12 08:09:55;;;;;;;;;0.00;0.00;;;;;;;;4733108;30;30180;-89
2022/11/12 08:12:20;;;;;;;;;0.00;0.00;;;;;;;;4742810;29;28572;-89
2022/11/12 08:14:45;;;;;;;;;0.00;0.00;;;;;;;;4753201;29;28719;-88
2022/11/12 08:17:10;;;;;;;;;0.00;0.00;;;;;;;;4748784;29;28680;-89
2022/11/12 08:19:35;;;;;;;;;0.00;0.00;;;;;;;;4752623;29;29388;-89
2022/11/12 08:22:01;;;;;;;;;0.00;0.00;;;;;;;;4758718;29;29111;-88
2022/11/12 08:24:26;;;;;;;;;0.00;0.00;;;;;;;;4763168;29;28504;-89
2022/11/12 08:26:51;;;;;;;;;0.00;0.00;;;;;;;;4747742;30;28852;-89
2022/11/12 08:29:16;;;;;;;;;0.00;0.00;;;;;;;;4747685;30;30948;-88
2022/11/12 08:31:41;;;;;;;;;9.00;9.00;;;;;;;;4747752;30;28494;-88
2022/11/12 08:34:13;;;;;;;;;0.00;0.00;;;;;;;;4733021;30;28643;-88
2022/11/12 08:36:41;;;;;;;;;1.00;1.00;;;;;;;;4747919;30;28465;-90
2022/11/12 08:39:07;;;;;;;;;0.00;0.00;;;;;;;;4732589;30;30008;-91
2022/11/12 08:41:32;;;;;;;;;0.00;0.00;;;;;;;;4748149;29;28633;-89
2022/11/12 08:43:57;;;;;;;;;0.00;0.00;;;;;;;;4766218;29;28465;-90
2022/11/12 08:46:23;;;;;;;;;0.00;0.00;;;;;;;;4765609;29;28659;-90
2022/11/12 08:48:48;;;;;;;;;0.00;0.00;;;;;;;;4766325;29;28584;-91
2022/11/12 08:51:13;;;;;;;;;0.00;0.00;;;;;;;;4749458;29;28914;-89
2022/11/12 08:53:38;;;;;;;;;0.00;0.00;;;;;;;;4765442;29;28807;-91
2022/11/12 08:56:03;;;;;;;;;0.00;0.00;;;;;;;;4754403;29;28423;-91
2022/11/12 08:58:28;;;;;;;;;0.00;0.00;;;;;;;;4748216;29;28527;-91
2022/11/12 09:00:54;;;;;;;;;0.00;0.00;;;;;;;;4747422;30;28856;-89
2022/11/12 09:03:20;;;;;;;;;0.00;0.00;;;;;;;;4748294;30;28478;-90
2022/11/12 09:05:46;;;;;;;;;0.00;0.00;;;;;;;;4731358;30;28414;-89
2022/11/12 09:08:12;;;;;;;;;0.00;0.00;;;;;;;;4748007;29;28597;-91
2022/11/12 09:10:38;;;;;;;;;0.00;0.00;;;;;;;;4738400;29;29536;-91
2022/11/12 09:13:04;;;;;;;;;0.00;0.00;;;;;;;;4732991;29;28731;-91
2022/11/12 09:15:29;;;;;;;;;0.00;0.00;;;;;;;;4753196;29;28442;-90
2022/11/12 09:17:55;;;;;;;;;0.00;0.00;;;;;;;;4739079;29;29954;-90
2022/11/12 09:20:20;;;;;;;;;0.00;0.00;;;;;;;;4751556;29;28604;-90
2022/11/12 09:22:45;;;;;;;;;0.00;0.00;;;;;;;;4750587;29;28629;-91
2022/11/12 09:25:11;;;;;;;;;0.00;0.00;;;;;;;;4758083;29;28509;-90
2022/11/12 09:27:36;;;;;;;;;0.00;0.00;;;;;;;;4739619;29;31256;-90
2022/11/12 09:30:01;;;;;;;;;0.00;0.00;;;;;;;;4739372;30;28725;-91
2022/11/12 09:32:26;;;;;;;;;0.00;0.00;;;;;;;;4737303;30;28556;-91
2022/11/12 09:34:52;;;;;;;;;0.00;0.00;;;;;;;;4756712;29;28484;-91
2022/11/12 09:37:17;;;;;;;;;0.00;0.00;;;;;;;;4753207;29;29412;-90
2022/11/12 09:39:42;;;;;;;;;0.00;0.00;;;;;;;;4731147;30;28641;-90
2022/11/12 09:42:07;;;;;;;;;15.00;15.00;;;;;;;;4754176;29;28503;-90
2022/11/12 09:44:35;;;;;;;;;0.00;0.00;;;;;;;;4735834;29;28621;-91
2022/11/12 09:47:03;;;;;;;;;0.00;0.00;;;;;;;;4760955;29;28394;-91
2022/11/12 09:49:34;;;;;;;;;0.00;0.00;;;;;;;;4755271;29;29439;-91
2022/11/12 09:52:03;;;;;;;;;0.00;0.00;;;;;;;;4746043;29;28552;-92
2022/11/12 09:54:32;;;;;;;;;0.00;0.00;;;;;;;;4740836;29;28427;-90
2022/11/12 09:56:57;;;;;;;;;0.00;0.00;;;;;;;;4731653;29;30456;-91
2022/11/12 09:59:27;;;;;;;;;0.00;0.00;;;;;;;;4733109;29;29710;-91
2022/11/12 10:02:15;;;;;;;;;0.00;0.00;;;;;;;;4750309;29;28560;-89
2022/11/12 10:04:59;;;;;;;;;0.00;0.00;;;;;;;;4755195;29;28469;-91
2022/11/12 10:07:30;;;;;;;;;0.00;0.00;;;;;;;;4756161;29;29547;-90
2022/11/12 10:10:15;;;;;;;;;0.00;0.00;;;;;;;;4754763;29;28634;-89
2022/11/12 10:12:49;;;;;;;;;0.00;0.00;;;;;;;;4736863;29;28531;-91
2022/11/12 10:18:20;;;;;;;;;0.00;0.00;;;;;;;;4751406;29;28632;-92
2022/11/12 10:20:53;;;;;;;;;0.00;0.00;;;;;;;;4735017;30;28740;-90
2022/11/12 10:23:21;;;;;;;;;0.00;0.00;;;;;;;;4737575;29;28476;-91
2022/11/12 10:25:48;;;;;;;;;0.00;0.00;;;;;;;;4760588;29;28723;-90
2022/11/12 10:28:20;;;;;;;;;0.00;0.00;;;;;;;;4734589;30;28477;-90
2022/11/12 10:30:45;;;;;;;;;0.00;0.00;;;;;;;;4738448;30;29044;-91
2022/11/12 10:33:14;;;;;;;;;0.00;0.00;;;;;;;;4762276;29;28568;-90
2022/11/12 10:35:39;;;;;;;;;0.00;0.00;;;;;;;;4759860;29;29856;-91
2022/11/12 10:38:06;;;;;;;;;0.00;0.00;;;;;;;;4747604;30;28532;-90
2022/11/12 10:40:36;;;;;;;;;0.00;0.00;;;;;;;;4742287;29;29928;-91
2022/11/12 10:43:04;;;;;;;;;0.00;0.00;;;;;;;;4753074;29;28465;-91
2022/11/12 10:45:29;;;;;;;;;0.00;0.00;;;;;;;;4751064;29;28399;-89
2022/11/12 10:47:55;;;;;;;;;0.00;0.00;;;;;;;;4753480;29;28718;-90
2022/11/12 10:50:40;;;;;;;;;0.00;0.00;;;;;;;;4736582;30;29444;-89
2022/11/12 10:53:06;;;;;;;;;0.00;0.00;;;;;;;;4750504;29;28594;-90
2022/11/12 10:55:33;;;;;;;;;0.00;0.00;;;;;;;;4745334;29;28598;-90
2022/11/12 10:58:10;;;;;;;;;0.00;0.00;;;;;;;;4757276;29;28492;-91
2022/11/12 11:00:37;;;;;;;;;0.00;0.00;;;;;;;;4753935;29;28565;-86
2022/11/12 11:03:05;;;;;;;;;0.00;0.00;;;;;;;;4754417;29;28439;-87
2022/11/12 11:05:33;;;;;;;;;0.00;0.00;;;;;;;;4735201;29;28490;-88
2022/11/12 11:08:00;;;;;;;;;0.00;0.00;;;;;;;;4738805;29;29853;-88
2022/11/12 11:10:27;;;;;;;;;0.00;0.00;;;;;;;;4736497;29;29400;-88
2022/11/12 11:13:08;;;;;;;;;0.00;0.00;;;;;;;;4744692;29;28474;-88
2022/11/12 11:15:33;;;;;;;;;0.00;0.00;;;;;;;;4734155;29;28636;-87
2022/11/12 11:17:58;;;;;;;;;0.00;0.00;;;;;;;;4736545;30;30098;-86
2022/11/12 11:20:23;;;;;;;;;0.00;0.00;;;;;;;;4740786;29;28547;-90
2022/11/12 11:22:52;;;;;;;;;0.00;0.00;;;;;;;;4741639;29;28550;-88
2022/11/12 11:25:21;;;;;;;;;0.00;0.00;;;;;;;;4757436;29;28568;-90
2022/11/12 11:28:10;;;;;;;;;0.00;0.00;;;;;;;;4733974;30;30514;-90
2022/11/12 11:30:40;;;;;;;;;0.00;0.00;;;;;;;;4733428;29;30240;-88
2022/11/12 11:33:19;;;;;;;;;0.00;0.00;;;;;;;;4734365;30;28617;-88
2022/11/12 11:35:51;;;;;;;;;0.00;0.00;;;;;;;;4760727;29;28545;-89
2022/11/12 11:38:33;;;;;;;;;0.00;0.00;;;;;;;;4739842;29;30520;-90
2022/11/12 11:41:01;;;;;;;;;0.00;0.00;;;;;;;;4751764;29;28446;-87
2022/11/12 11:43:45;;;;;;;;;0.00;0.00;;;;;;;;4736643;30;28903;-88
2022/11/12 11:46:29;;;;;;;;;0.00;0.00;;;;;;;;4752816;29;28456;-88
2022/11/12 11:49:06;;;;;;;;;0.00;0.00;;;;;;;;4733006;29;30605;-89
2022/11/12 11:51:31;;;;;;;;;0.00;0.00;;;;;;;;4733915;30;29975;-88
2022/11/12 11:53:56;;;;;;;;;0.00;0.00;;;;;;;;4735304;29;28396;-88
2022/11/12 11:56:26;;;;;;;;;0.00;0.00;;;;;;;;4757486;29;28466;-88
2022/11/12 11:59:04;;;;;;;;;0.00;0.00;;;;;;;;4754327;29;28843;-88
2022/11/12 12:01:48;;;;;;;;;0.00;0.00;;;;;;;;4753805;29;29495;-88
2022/11/12 12:04:36;;;;;;;;;0.00;0.00;;;;;;;;4753364;29;28557;-88
2022/11/12 12:07:04;;;;;;;;;0.00;0.00;;;;;;;;4745885;29;28630;-89
2022/11/12 12:09:38;;;;;;;;;0.00;0.00;;;;;;;;4742709;29;30010;-87
2022/11/12 12:12:33;;;;;;;;;0.00;0.00;;;;;;;;4754920;29;28581;-88
2022/11/12 12:15:10;;;;;;;;;0.00;0.00;;;;;;;;4749130;29;28842;-87
2022/11/12 12:17:40;;;;;;;;;0.00;0.00;;;;;;;;4760077;29;28480;-88
2022/11/12 12:20:18;;;;;;;;;0.00;0.00;;;;;;;;4733088;29;30177;-88
2022/11/12 12:22:46;;;;;;;;;0.00;0.00;;;;;;;;4738388;29;29646;-88
2022/11/12 12:25:16;;;;;;;;;0.00;0.00;;;;;;;;4752424;29;28684;-87
2022/11/12 12:27:49;;;;;;;;;0.00;0.00;;;;;;;;4747252;29;28607;-88
2022/11/12 12:30:18;;;;;;;;;0.00;0.00;;;;;;;;4743944;29;30641;-88
2022/11/12 12:32:55;;;;;;;;;0.00;0.00;;;;;;;;4737127;29;29581;-88
2022/11/12 12:35:26;;;;;;;;;0.00;0.00;;;;;;;;4751301;29;28633;-87
2022/11/12 12:37:52;;;;;;;;;0.00;0.00;;;;;;;;4738387;29;28619;-87
2022/11/12 12:40:20;;;;;;;;;0.00;0.00;;;;;;;;4735792;29;30482;-88
2022/11/12 12:42:51;;;;;;;;;0.00;0.00;;;;;;;;4735623;30;29598;-88
2022/11/12 12:45:16;;;;;;;;;0.00;0.00;;;;;;;;4736370;29;28603;-87
2022/11/12 12:47:42;;;;;;;;;0.00;0.00;;;;;;;;4735833;30;28478;-88
2022/11/12 12:50:12;;;;;;;;;0.00;0.00;;;;;;;;4760318;29;29371;-87
2022/11/12 12:52:56;;;;;;;;;0.00;0.00;;;;;;;;4734799;30;29210;-87
2022/11/12 12:55:40;;;;;;;;;0.00;0.00;;;;;;;;4755425;29;28578;-87
2022/11/12 12:58:15;;;;;;;;;0.00;0.00;;;;;;;;4759714;29;28622;-86
2022/11/12 13:00:44;;;;;;;;;0.00;0.00;;;;;;;;4752448;29;29968;-88
2022/11/12 13:03:10;;;;;;;;;0.00;0.00;;;;;;;;4761929;29;28454;-87
2022/11/12 13:05:38;;;;;;;;;0.00;0.00;;;;;;;;4760100;29;28432;-87
2022/11/12 13:08:08;;;;;;;;;0.00;0.00;;;;;;;;4738428;30;28552;-87
2022/11/12 13:10:44;;;;;;;;;0.00;0.00;;;;;;;;4738955;29;29899;-87
2022/11/12 13:13:16;;;;;;;;;0.00;0.00;;;;;;;;4738310;29;29207;-89
2022/11/12 13:15:42;;;;;;;;;0.00;0.00;;;;;;;;4736810;29;28595;-86
2022/11/12 13:18:12;;;;;;;;;0.00;0.00;;;;;;;;4752725;29;28792;-87
2022/11/12 13:20:38;;;;;;;;;0.00;0.00;;;;;;;;4752366;29;29461;-88
2022/11/12 13:23:07;;;;;;;;;0.00;0.00;;;;;;;;4749566;29;28553;-88
2022/11/12 13:25:32;;;;;;;;;0.00;0.00;;;;;;;;4734606;29;28569;-88
2022/11/12 13:28:00;;;;;;;;;0.00;0.00;;;;;;;;4747196;29;28597;-88
2022/11/12 13:30:46;;;;;;;;;0.00;0.00;;;;;;;;4756527;29;28571;-88
2022/11/12 13:33:22;;;;;;;;;0.00;0.00;;;;;;;;4738361;30;30257;-87
2022/11/12 13:35:47;;;;;;;;;0.00;0.00;;;;;;;;4752740;29;28651;-87
2022/11/12 13:38:16;;;;;;;;;0.00;0.00;;;;;;;;4753470;29;28722;-89
2022/11/12 13:40:44;;;;;;;;;0.00;0.00;;;;;;;;4734372;29;30263;-89
2022/11/12 13:43:11;;;;;;;;;0.00;0.00;;;;;;;;4752387;29;28714;-89
2022/11/12 13:45:39;;;;;;;;;0.00;0.00;;;;;;;;4749593;29;28606;-89
2022/11/12 13:48:06;;;;;;;;;0.00;0.00;;;;;;;;4745664;29;28931;-88
2022/11/12 13:50:31;;;;;;;;;0.00;0.00;;;;;;;;4738110;29;30481;-88
2022/11/12 13:52:58;;;;;;;;;0.00;0.00;;;;;;;;4738187;29;29924;-88
2022/11/12 13:55:23;;;;;;;;;0.00;0.00;;;;;;;;4737056;29;28568;-88
2022/11/12 13:57:52;;;;;;;;;0.00;0.00;;;;;;;;4739299;29;28599;-88
2022/11/12 14:00:20;;;;;;;;;0.00;0.00;;;;;;;;4752735;29;29816;-87
2022/11/12 14:03:05;;;;;;;;;0.00;0.00;;;;;;;;4741441;29;29753;-88
2022/11/12 14:05:31;;;;;;;;;0.00;0.00;;;;;;;;4744247;29;28648;-88
2022/11/12 14:07:59;;;;;;;;;0.00;0.00;;;;;;;;4742797;29;28663;-88
2022/11/12 14:10:40;;;;;;;;;0.00;0.00;;;;;;;;4731471;29;30851;-87
2022/11/12 14:13:05;;;;;;;;;0.00;0.00;;;;;;;;4734820;29;29045;-90
2022/11/12 14:15:41;;;;;;;;;0.00;0.00;;;;;;;;4736246;29;28600;-89
2022/11/12 14:18:09;;;;;;;;;0.00;0.00;;;;;;;;4745195;29;28802;-88
2022/11/12 14:20:35;;;;;;;;;0.00;0.00;;;;;;;;4749671;29;28540;-87
2022/11/12 14:23:10;;;;;;;;;0.00;0.00;;;;;;;;4736632;29;28666;-88
2022/11/12 14:25:44;;;;;;;;;0.00;0.00;;;;;;;;4747239;29;28566;-91
2022/11/12 14:28:28;;;;;;;;;0.00;0.00;;;;;;;;4764301;29;28521;-88
2022/11/12 14:30:54;;;;;;;;;0.00;0.00;;;;;;;;4736359;30;31264;-88
2022/11/12 14:33:20;;;;;;;;;0.00;0.00;;;;;;;;4735317;29;28824;-88
2022/11/12 14:35:46;;;;;;;;;0.00;0.00;;;;;;;;4735406;29;28776;-88
2022/11/12 14:38:17;;;;;;;;;0.00;0.00;;;;;;;;4753525;29;28395;-88
2022/11/12 14:40:45;;;;;;;;;0.00;0.00;;;;;;;;4736803;29;30019;-88
2022/11/12 14:43:29;;;;;;;;;0.00;0.00;;;;;;;;4750781;29;28456;-88
2022/11/12 14:45:55;;;;;;;;;0.00;0.00;;;;;;;;4743562;29;28478;-88
2022/11/12 14:48:20;;;;;;;;;0.00;0.00;;;;;;;;4757827;29;28276;-89
2022/11/12 14:50:47;;;;;;;;;0.00;0.00;;;;;;;;4751094;29;28515;-88
2022/11/12 14:53:15;;;;;;;;;0.00;0.00;;;;;;;;4759947;29;28510;-88
2022/11/12 14:55:43;;;;;;;;;0.00;0.00;;;;;;;;4755621;29;28498;-88
2022/11/12 14:58:15;;;;;;;;;0.00;0.00;;;;;;;;4758957;29;29043;-88
2022/11/12 15:00:43;;;;;;;;;0.00;0.00;;;;;;;;4751163;29;29667;-88
2022/11/12 15:03:11;;;;;;;;;0.00;0.00;;;;;;;;4745461;30;29820;-88
2022/11/12 15:05:51;;;;;;;;;0.00;0.00;;;;;;;;4751170;29;28458;-88
2022/11/12 15:08:26;;;;;;;;;0.00;0.00;;;;;;;;4741522;30;28534;-87
2022/11/12 15:10:51;;;;;;;;;0.00;0.00;;;;;;;;4737470;29;29965;-88
2022/11/12 15:13:18;;;;;;;;;0.00;0.00;;;;;;;;4752407;29;28950;-88